createdAt,value
2023-02-11T00:01:37.755Z,-2.20
2023-02-11T00:04:06.258Z,-2.16
2023-02-11T00:06:35.649Z,-2.12
2023-02-11T00:09:08.837Z,-2.09
2023-02-11T00:11:38.030Z,-2.05
2023-02-11T00:14:08.080Z,-2.01
2023-02-11T00:16:36.304Z,-1.98
2023-02-11T00:19:06.387Z,-1.95
2023-02-11T00:21:38.274Z,-1.92
2023-02-11T00:24:06.996Z,-1.89
2023-02-11T00:26:36.843Z,-1.86
2023-02-11T00:29:05.958Z,-1.85
2023-02-11T00:31:36.207Z,-1.84
2023-02-11T00:34:09.655Z,-1.82
2023-02-11T00:36:39.623Z,-1.80
2023-02-11T00:39:10.235Z,-1.77
2023-02-11T00:41:38.620Z,-1.75
2023-02-11T00:44:07.436Z,-1.73
2023-02-11T00:46:35.580Z,-1.71
2023-02-11T00:49:03.791Z,-1.70
2023-02-11T00:51:32.890Z,-1.69
2023-02-11T00:54:01.225Z,-1.67
2023-02-11T00:56:29.521Z,-1.65
2023-02-11T00:58:58.369Z,-1.63
2023-02-11T01:01:26.620Z,-1.62
2023-02-11T01:03:55.386Z,-1.60
2023-02-11T01:06:24.933Z,-1.58
2023-02-11T01:08:53.174Z,-1.56
2023-02-11T01:11:22.245Z,-1.54
2023-02-11T01:13:50.536Z,-1.52
2023-02-11T01:16:19.460Z,-1.52
2023-02-11T01:18:48.657Z,-1.52
2023-02-11T01:21:19.181Z,-1.53
2023-02-11T01:23:47.512Z,-1.53
2023-02-11T01:26:15.978Z,-1.53
2023-02-11T01:28:44.378Z,-1.52
2023-02-11T01:31:12.941Z,-1.52
2023-02-11T01:33:41.131Z,-1.51
2023-02-11T01:36:10.836Z,-1.49
2023-02-11T01:38:46.514Z,-1.46
2023-02-11T01:41:15.434Z,-1.44
2023-02-11T01:43:46.883Z,-1.42
2023-02-11T01:46:37.307Z,-1.40
2023-02-11T01:49:12.157Z,-1.37
2023-02-11T01:52:02.588Z,-1.36
2023-02-11T01:54:52.384Z,-1.34
2023-02-11T01:57:27.835Z,-1.32
2023-02-11T02:00:33.563Z,-1.31
2023-02-11T02:03:07.110Z,-1.29
2023-02-11T02:05:49.698Z,-1.28
2023-02-11T02:08:33.317Z,-1.26
2023-02-11T02:11:07.904Z,-1.24
2023-02-11T02:13:40.204Z,-1.23
2023-02-11T02:16:13.238Z,-1.23
2023-02-11T02:19:26.522Z,-1.21
2023-02-11T02:22:05.170Z,-1.21
2023-02-11T02:25:05.482Z,-1.20
2023-02-11T02:28:12.742Z,-1.18
2023-02-11T02:31:12.473Z,-1.17
2023-02-11T02:33:45.311Z,-1.17
2023-02-11T02:36:32.711Z,-1.17
2023-02-11T02:39:08.520Z,-1.17
2023-02-11T02:41:36.940Z,-1.15
2023-02-11T02:44:05.320Z,-1.15
2023-02-11T02:46:37.175Z,-1.14
2023-02-11T02:49:07.321Z,-1.13
2023-02-11T02:52:14.550Z,-1.12
2023-02-11T02:55:08.915Z,-1.09
2023-02-11T02:58:05.425Z,-1.09
2023-02-11T03:01:00.279Z,-1.11
2023-02-11T03:03:31.824Z,-1.13
2023-02-11T03:06:14.317Z,-1.13
2023-02-11T03:08:51.383Z,-1.12
2023-02-11T03:11:21.025Z,-1.13
2023-02-11T03:13:50.020Z,-1.12
2023-02-11T03:16:25.099Z,-1.12
2023-02-11T03:19:21.953Z,-1.11
2023-02-11T03:21:50.873Z,-1.09
2023-02-11T03:24:32.956Z,-1.08
2023-02-11T03:27:10.079Z,-1.08
2023-02-11T03:30:14.042Z,-1.08
2023-02-11T03:33:01.381Z,-1.07
2023-02-11T03:35:35.910Z,-1.07
2023-02-11T03:38:43.025Z,-1.09
2023-02-11T03:41:11.046Z,-1.12
2023-02-11T03:43:44.950Z,-1.14
2023-02-11T03:46:13.696Z,-1.14
2023-02-11T03:48:44.592Z,-1.15
2023-02-11T03:51:12.894Z,-1.15
2023-02-11T03:53:42.467Z,-1.16
2023-02-11T03:56:14.665Z,-1.18
2023-02-11T03:58:45.780Z,-1.18
2023-02-11T04:01:14.311Z,-1.19
2023-02-11T04:03:42.736Z,-1.19
2023-02-11T04:06:10.810Z,-1.21
2023-02-11T04:08:39.236Z,-1.20
2023-02-11T04:11:12.165Z,-1.18
2023-02-11T04:13:40.527Z,-1.16
2023-02-11T04:16:09.056Z,-1.14
2023-02-11T04:18:42.844Z,-1.13
2023-02-11T04:21:10.942Z,-1.14
2023-02-11T04:23:39.095Z,-1.12
2023-02-11T04:26:07.569Z,-1.11
2023-02-11T04:28:36.619Z,-1.10
2023-02-11T04:31:05.481Z,-1.09
2023-02-11T04:33:33.658Z,-1.08
2023-02-11T04:36:02.470Z,-1.05
2023-02-11T04:38:30.796Z,-1.04
2023-02-11T04:41:00.712Z,-1.03
2023-02-11T04:43:32.060Z,-1.02
2023-02-11T04:46:00.422Z,-1.02
2023-02-11T04:48:28.854Z,-1.03
2023-02-11T04:50:57.393Z,-1.03
2023-02-11T04:53:25.861Z,-1.05
2023-02-11T04:55:54.018Z,-1.05
2023-02-11T04:58:22.447Z,-1.06
2023-02-11T05:00:50.969Z,-1.08
2023-02-11T05:03:19.301Z,-1.10
2023-02-11T05:05:47.360Z,-1.11
2023-02-11T05:08:15.411Z,-1.13
2023-02-11T05:10:47.219Z,-1.16
2023-02-11T05:13:16.269Z,-1.19
2023-02-11T05:15:49.066Z,-1.21
2023-02-11T05:18:17.631Z,-1.23
2023-02-11T05:20:45.811Z,-1.24
2023-02-11T05:23:14.072Z,-1.24
2023-02-11T05:25:42.421Z,-1.25
2023-02-11T05:28:11.098Z,-1.25
2023-02-11T05:30:39.500Z,-1.24
2023-02-11T05:33:07.694Z,-1.24
2023-02-11T05:35:36.494Z,-1.23
2023-02-11T05:38:04.800Z,-1.22
2023-02-11T05:40:33.350Z,-1.21
2023-02-11T05:43:01.986Z,-1.20
2023-02-11T05:45:30.576Z,-1.18
2023-02-11T05:47:59.481Z,-1.16
2023-02-11T05:50:28.216Z,-1.14
2023-02-11T05:52:56.408Z,-1.11
2023-02-11T05:55:25.192Z,-1.07
2023-02-11T05:57:53.460Z,-1.03
2023-02-11T06:00:21.737Z,-1.00
2023-02-11T06:02:49.930Z,-0.97
2023-02-11T06:05:18.280Z,-0.93
2023-02-11T06:07:47.748Z,-0.93
2023-02-11T06:10:15.849Z,-0.95
2023-02-11T06:12:45.003Z,-0.97
2023-02-11T06:15:13.550Z,-0.99
2023-02-11T06:17:42.828Z,-0.99
2023-02-11T06:20:15.562Z,-0.99
2023-02-11T06:22:43.624Z,-0.98
2023-02-11T06:25:12.109Z,-0.98
2023-02-11T06:27:41.182Z,-0.94
2023-02-11T06:30:10.419Z,-0.90
2023-02-11T06:32:44.475Z,-0.87
2023-02-11T06:35:14.474Z,-0.82
2023-02-11T06:37:43.154Z,-0.78
2023-02-11T06:40:11.909Z,-0.72
2023-02-11T06:42:41.736Z,-0.66
2023-02-11T06:45:11.141Z,-0.59
2023-02-11T06:47:41.573Z,-0.52
2023-02-11T06:50:12.280Z,-0.46
2023-02-11T06:52:40.670Z,-0.39
2023-02-11T06:55:08.954Z,-0.30
2023-02-11T06:57:38.851Z,-0.21
2023-02-11T07:00:08.035Z,-0.13
2023-02-11T07:02:37.666Z,-0.08
2023-02-11T07:05:07.255Z,-0.03
2023-02-11T07:07:36.216Z,-0.01
2023-02-11T07:10:07.578Z,-0.01
2023-02-11T07:12:41.370Z,0.11
2023-02-11T07:15:10.345Z,0.21
2023-02-11T07:17:38.815Z,0.23
2023-02-11T07:20:09.205Z,0.25
2023-02-11T07:22:37.537Z,0.24
2023-02-11T07:25:05.987Z,0.22
2023-02-11T07:27:35.003Z,0.19
2023-02-11T07:30:04.939Z,0.19
2023-02-11T07:32:35.363Z,0.20
2023-02-11T07:35:04.747Z,0.24
2023-02-11T07:37:35.106Z,0.28
2023-02-11T07:40:04.092Z,0.32
2023-02-11T07:42:32.872Z,0.36
2023-02-11T07:45:01.906Z,0.36
2023-02-11T07:47:30.919Z,0.38
2023-02-11T07:49:59.538Z,0.40
2023-02-11T07:52:31.228Z,0.42
2023-02-11T07:54:59.249Z,0.45
2023-02-11T07:57:27.661Z,0.48
2023-02-11T07:59:56.340Z,0.51
2023-02-11T08:02:24.431Z,0.55
2023-02-11T08:04:53.447Z,0.60
2023-02-11T08:07:21.820Z,0.63
2023-02-11T08:09:55.641Z,0.65
2023-02-11T08:12:24.048Z,0.69
2023-02-11T08:14:52.130Z,0.73
2023-02-11T08:17:20.603Z,0.77
2023-02-11T08:19:48.944Z,0.81
2023-02-11T08:22:17.025Z,0.83
2023-02-11T08:24:45.382Z,0.83
2023-02-11T08:27:16.003Z,0.84
2023-02-11T08:29:44.318Z,0.88
2023-02-11T08:32:15.761Z,0.92
2023-02-11T08:34:44.322Z,0.98
2023-02-11T08:37:12.393Z,1.05
2023-02-11T08:39:40.549Z,1.11
2023-02-11T08:42:08.724Z,1.18
2023-02-11T08:44:37.767Z,1.29
2023-02-11T08:47:06.518Z,1.41
2023-02-11T08:49:35.254Z,1.54
2023-02-11T08:52:04.351Z,1.68
2023-02-11T08:54:34.741Z,1.81
2023-02-11T08:57:03.655Z,1.91
2023-02-11T08:59:31.783Z,2.01
2023-02-11T09:02:00.355Z,2.04
2023-02-11T09:04:28.563Z,2.06
2023-02-11T09:06:57.146Z,1.99
2023-02-11T09:09:26.205Z,2.08
2023-02-11T09:11:57.447Z,2.20
2023-02-11T09:14:25.437Z,2.26
2023-02-11T09:16:53.759Z,2.27
2023-02-11T09:19:25.587Z,2.28
2023-02-11T09:21:53.756Z,2.29
2023-02-11T09:24:22.285Z,2.26
2023-02-11T09:26:50.724Z,2.23
2023-02-11T09:29:18.769Z,2.19
2023-02-11T09:31:47.234Z,2.15
2023-02-11T09:34:16.005Z,2.16
2023-02-11T09:36:46.100Z,2.18
2023-02-11T09:39:17.350Z,2.21
2023-02-11T09:42:15.079Z,2.24
2023-02-11T09:44:44.447Z,2.26
2023-02-11T09:47:34.745Z,2.27
2023-02-11T09:50:07.983Z,2.31
2023-02-11T09:52:40.459Z,2.39
2023-02-11T09:55:22.351Z,2.52
2023-02-11T09:57:51.349Z,2.71
2023-02-11T10:00:21.971Z,2.87
2023-02-11T10:02:58.485Z,3.00
2023-02-11T10:05:44.725Z,3.08
2023-02-11T10:08:16.821Z,3.13
2023-02-11T10:10:54.628Z,3.08
2023-02-11T10:13:42.641Z,3.03
2023-02-11T10:16:35.826Z,2.98
2023-02-11T10:19:19.851Z,2.98
2023-02-11T10:22:00.257Z,2.97
2023-02-11T10:24:33.149Z,2.98
2023-02-11T10:27:04.478Z,2.98
2023-02-11T10:29:36.947Z,3.01
2023-02-11T10:32:09.488Z,3.08
2023-02-11T10:34:41.228Z,3.13
2023-02-11T10:37:13.093Z,3.11
2023-02-11T10:39:44.727Z,3.10
2023-02-11T10:42:13.509Z,3.11
2023-02-11T10:44:57.780Z,3.11
2023-02-11T10:47:28.799Z,3.06
2023-02-11T10:50:03.593Z,2.99
2023-02-11T10:52:34.390Z,2.96
2023-02-11T10:55:06.647Z,2.96
2023-02-11T10:57:38.320Z,2.94
2023-02-11T11:00:18.425Z,2.92
2023-02-11T11:02:53.648Z,2.88
2023-02-11T11:05:27.779Z,2.80
2023-02-11T11:08:05.075Z,2.75
2023-02-11T11:10:43.820Z,2.74
2023-02-11T11:13:25.961Z,2.72
2023-02-11T11:16:08.514Z,2.69
2023-02-11T11:18:37.707Z,2.68
2023-02-11T11:21:11.528Z,2.69
2023-02-11T11:23:39.687Z,2.71
2023-02-11T11:26:10.733Z,2.72
2023-02-11T11:28:41.693Z,2.73
2023-02-11T11:31:15.613Z,2.77
2023-02-11T11:33:46.830Z,2.79
2023-02-11T11:36:20.064Z,2.77
2023-02-11T11:38:55.922Z,2.72
2023-02-11T11:41:29.637Z,2.68
2023-02-11T11:44:04.445Z,2.65
2023-02-11T11:46:38.430Z,2.66
2023-02-11T11:49:26.882Z,2.68
2023-02-11T11:52:10.067Z,2.68
2023-02-11T11:54:38.701Z,2.67
2023-02-11T11:57:16.163Z,2.67
2023-02-11T11:59:44.796Z,2.67
2023-02-11T12:02:26.977Z,2.68
2023-02-11T12:05:22.176Z,2.67
2023-02-11T12:08:13.185Z,2.63
2023-02-11T12:10:52.053Z,2.63
2023-02-11T12:13:34.184Z,2.62
2023-02-11T12:16:24.385Z,2.58
2023-02-11T12:18:55.333Z,2.61
2023-02-11T12:21:30.044Z,2.63
2023-02-11T12:24:10.548Z,2.67
2023-02-11T12:26:50.226Z,2.70
2023-02-11T12:29:37.016Z,2.75
2023-02-11T12:32:39.412Z,2.80
2023-02-11T12:35:29.337Z,2.86
2023-02-11T12:38:29.967Z,2.90
2023-02-11T12:41:17.210Z,2.92
2023-02-11T12:43:45.411Z,2.91
2023-02-11T12:46:21.243Z,2.87
2023-02-11T12:49:12.430Z,2.83
2023-02-11T12:52:17.224Z,2.82
2023-02-11T12:54:52.362Z,2.83
2023-02-11T12:57:26.242Z,2.86
2023-02-11T13:00:25.379Z,2.89
2023-02-11T13:03:07.245Z,2.93
2023-02-11T13:05:55.888Z,2.96
2023-02-11T13:08:36.085Z,2.97
2023-02-11T13:11:21.832Z,2.97
2023-02-11T13:13:51.205Z,2.98
2023-02-11T13:16:39.774Z,2.99
2023-02-11T13:19:19.949Z,2.95
2023-02-11T13:22:17.143Z,2.91
2023-02-11T13:24:57.280Z,2.89
2023-02-11T13:27:37.127Z,2.86
2023-02-11T13:30:26.271Z,2.84
2023-02-11T13:32:55.732Z,2.83
2023-02-11T13:35:56.822Z,2.86
2023-02-11T13:38:27.823Z,2.85
2023-02-11T13:41:08.461Z,2.85
2023-02-11T13:43:37.259Z,2.88
2023-02-11T13:46:07.062Z,2.85
2023-02-11T13:48:38.594Z,2.84
2023-02-11T13:51:12.985Z,2.83
2023-02-11T13:53:49.695Z,2.81
2023-02-11T13:56:40.460Z,2.79
2023-02-11T13:59:44.183Z,2.77
2023-02-11T14:02:36.622Z,2.76
2023-02-11T14:05:24.740Z,2.76
2023-02-11T14:08:30.133Z,2.76
2023-02-11T14:11:25.806Z,2.74
2023-02-11T14:13:55.333Z,2.72
2023-02-11T14:16:37.030Z,2.70
2023-02-11T14:19:08.623Z,2.70
2023-02-11T14:21:38.485Z,2.69
2023-02-11T14:24:13.197Z,2.67
2023-02-11T14:27:21.809Z,2.63
2023-02-11T14:29:55.985Z,2.61
2023-02-11T14:32:56.228Z,2.60
2023-02-11T14:35:36.940Z,2.57
2023-02-11T14:38:24.282Z,2.54
2023-02-11T14:41:06.316Z,2.52
2023-02-11T14:43:38.861Z,2.50
2023-02-11T14:46:07.292Z,2.47
2023-02-11T14:48:37.489Z,2.42
2023-02-11T14:51:19.780Z,2.39
2023-02-11T14:53:50.055Z,2.30
2023-02-11T14:56:19.423Z,2.35
2023-02-11T14:58:49.025Z,2.32
2023-02-11T15:01:35.413Z,2.27
2023-02-11T15:04:06.219Z,2.23
2023-02-11T15:06:47.603Z,2.19
2023-02-11T15:09:27.166Z,2.15
2023-02-11T15:11:56.318Z,2.08
2023-02-11T15:14:33.324Z,1.94
2023-02-11T15:17:03.941Z,1.73
2023-02-11T15:19:38.728Z,1.56
2023-02-11T15:22:22.308Z,1.49
2023-02-11T15:25:02.351Z,1.45
2023-02-11T15:27:42.173Z,1.41
2023-02-11T15:30:23.275Z,1.39
2023-02-11T15:32:59.431Z,1.36
2023-02-11T15:35:33.383Z,1.34
2023-02-11T15:38:02.620Z,1.33
2023-02-11T15:40:33.994Z,1.31
2023-02-11T15:43:05.975Z,1.51
2023-02-11T15:45:36.780Z,1.63
2023-02-11T15:48:20.816Z,1.66
2023-02-11T15:50:56.081Z,1.67
2023-02-11T15:53:29.863Z,1.67
2023-02-11T15:56:25.216Z,1.66
2023-02-11T15:58:55.468Z,1.65
2023-02-11T16:01:34.561Z,1.56
2023-02-11T16:04:09.199Z,1.59
2023-02-11T16:06:40.450Z,1.56
2023-02-11T16:09:10.594Z,1.54
2023-02-11T16:11:48.399Z,1.53
2023-02-11T16:14:37.499Z,1.52
2023-02-11T16:17:22.787Z,1.51
2023-02-11T16:19:51.750Z,1.50
2023-02-11T16:22:27.776Z,1.50
2023-02-11T16:24:58.691Z,1.49
2023-02-11T16:27:41.164Z,1.49
2023-02-11T16:30:32.924Z,1.48
2023-02-11T16:33:02.015Z,1.46
2023-02-11T16:35:32.099Z,1.42
2023-02-11T16:38:00.454Z,1.39
2023-02-11T16:40:29.130Z,1.35
2023-02-11T16:42:58.872Z,1.32
2023-02-11T16:45:27.236Z,1.29
2023-02-11T16:47:55.994Z,1.26
2023-02-11T16:50:25.380Z,1.24
2023-02-11T16:52:54.504Z,1.24
2023-02-11T16:55:26.673Z,1.24
2023-02-11T16:57:56.028Z,1.23
2023-02-11T17:00:25.317Z,1.23
2023-02-11T17:02:54.615Z,1.23
2023-02-11T17:05:24.015Z,1.24
2023-02-11T17:07:53.045Z,1.24
2023-02-11T17:10:23.579Z,1.24
2023-02-11T17:12:56.370Z,1.24
2023-02-11T17:15:26.270Z,1.24
2023-02-11T17:17:59.164Z,1.25
2023-02-11T17:20:28.521Z,1.27
2023-02-11T17:22:57.051Z,1.27
2023-02-11T17:25:27.534Z,1.29
2023-02-11T17:27:56.626Z,1.30
2023-02-11T17:30:25.440Z,1.31
2023-02-11T17:32:54.093Z,1.33
2023-02-11T17:35:22.486Z,1.36
2023-02-11T17:37:51.260Z,1.37
2023-02-11T17:40:19.672Z,1.39
2023-02-11T17:42:48.732Z,1.40
2023-02-11T17:45:17.045Z,1.41
2023-02-11T17:47:48.314Z,1.42
2023-02-11T17:50:17.130Z,1.42
2023-02-11T17:52:45.829Z,1.41
2023-02-11T17:55:14.273Z,1.41
2023-02-11T17:57:43.128Z,1.39
2023-02-11T18:00:13.301Z,1.39
2023-02-11T18:02:41.694Z,1.39
2023-02-11T18:05:10.611Z,1.39
2023-02-11T18:07:40.750Z,1.38
2023-02-11T18:10:09.763Z,1.35
2023-02-11T18:12:38.402Z,1.32
2023-02-11T18:15:07.309Z,1.30
2023-02-11T18:17:36.307Z,1.27
2023-02-11T18:20:05.889Z,1.25
2023-02-11T18:22:39.318Z,1.25
2023-02-11T18:25:08.477Z,1.26
2023-02-11T18:27:37.824Z,1.28
2023-02-11T18:30:09.367Z,1.31
2023-02-11T18:32:37.827Z,1.34
2023-02-11T18:35:09.253Z,1.35
2023-02-11T18:37:41.016Z,1.36
2023-02-11T18:40:10.518Z,1.38
2023-02-11T18:42:39.332Z,1.39
2023-02-11T18:45:12.066Z,1.42
2023-02-11T18:47:40.981Z,1.42
2023-02-11T18:50:10.645Z,1.43
2023-02-11T18:52:39.075Z,1.46
2023-02-11T18:55:08.471Z,1.47
2023-02-11T18:57:37.060Z,1.47
2023-02-11T19:00:08.482Z,1.49
2023-02-11T19:02:42.482Z,1.51
2023-02-11T19:05:12.849Z,1.52
2023-02-11T19:07:43.608Z,1.53
2023-02-11T19:10:15.839Z,1.55
2023-02-11T19:12:48.109Z,1.56
2023-02-11T19:15:18.591Z,1.58
2023-02-11T19:17:51.817Z,1.60
2023-02-11T19:20:25.498Z,1.60
2023-02-11T19:22:54.224Z,1.63
2023-02-11T19:25:28.319Z,1.64
2023-02-11T19:27:58.273Z,1.64
2023-02-11T19:30:31.024Z,1.65
2023-02-11T19:33:01.203Z,1.66
2023-02-11T19:35:31.162Z,1.67
2023-02-11T19:38:02.348Z,1.68
2023-02-11T19:40:34.528Z,1.69
2023-02-11T19:43:12.518Z,1.70
2023-02-11T19:45:44.210Z,1.71
2023-02-11T19:48:13.923Z,1.72
2023-02-11T19:50:43.369Z,1.74
2023-02-11T19:53:13.684Z,1.76
2023-02-11T19:55:50.527Z,1.76
2023-02-11T19:58:21.789Z,1.77
2023-02-11T20:00:53.049Z,1.78
2023-02-11T20:03:22.564Z,1.78
2023-02-11T20:05:51.662Z,1.77
2023-02-11T20:08:21.577Z,1.78
2023-02-11T20:10:50.452Z,1.79
2023-02-11T20:13:19.811Z,1.80
2023-02-11T20:15:50.526Z,1.80
2023-02-11T20:18:21.266Z,1.81
2023-02-11T20:20:54.006Z,1.81
2023-02-11T20:23:22.577Z,1.81
2023-02-11T20:25:53.601Z,1.80
2023-02-11T20:28:22.429Z,1.79
2023-02-11T20:30:57.676Z,1.78
2023-02-11T20:33:26.410Z,1.76
2023-02-11T20:36:03.171Z,1.71
2023-02-11T20:38:32.437Z,1.66
2023-02-11T20:41:10.562Z,1.62
2023-02-11T20:43:38.969Z,1.57
2023-02-11T20:46:27.928Z,1.53
2023-02-11T20:49:07.380Z,1.49
2023-02-11T20:51:39.184Z,1.47
2023-02-11T20:54:31.113Z,1.47
2023-02-11T20:57:02.502Z,1.47
2023-02-11T20:59:39.096Z,1.47
2023-02-11T21:02:13.469Z,1.48
2023-02-11T21:04:44.442Z,1.49
2023-02-11T21:07:14.977Z,1.51
2023-02-11T21:09:49.346Z,1.51
2023-02-11T21:12:25.385Z,1.52
2023-02-11T21:14:58.123Z,1.52
2023-02-11T21:17:27.835Z,1.53
2023-02-11T21:20:00.229Z,1.54
2023-02-11T21:22:28.651Z,1.56
2023-02-11T21:24:57.684Z,1.57
2023-02-11T21:27:33.334Z,1.59
2023-02-11T21:30:01.810Z,1.59
2023-02-11T21:32:30.494Z,1.59
2023-02-11T21:35:02.385Z,1.58
2023-02-11T21:37:33.447Z,1.55
2023-02-11T21:40:03.115Z,1.52
2023-02-11T21:42:32.430Z,1.47
2023-02-11T21:45:04.636Z,1.45
2023-02-11T21:47:33.401Z,1.42
2023-02-11T21:50:02.432Z,1.41
2023-02-11T21:52:31.095Z,1.42
2023-02-11T21:55:01.466Z,1.41
2023-02-11T21:57:32.061Z,1.42
2023-02-11T22:00:09.454Z,1.43
2023-02-11T22:02:39.286Z,1.44
2023-02-11T22:05:18.996Z,1.45
2023-02-11T22:07:49.262Z,1.45
2023-02-11T22:10:21.391Z,1.45
2023-02-11T22:12:52.310Z,1.44
2023-02-11T22:15:26.677Z,1.44
2023-02-11T22:17:55.493Z,1.43
2023-02-11T22:20:23.844Z,1.43
2023-02-11T22:22:52.402Z,1.43
2023-02-11T22:25:22.918Z,1.43
2023-02-11T22:27:54.796Z,1.43
2023-02-11T22:30:23.370Z,1.43
2023-02-11T22:32:52.669Z,1.42
2023-02-11T22:35:21.047Z,1.42
2023-02-11T22:37:54.227Z,1.42
2023-02-11T22:40:23.969Z,1.42
2023-02-11T22:42:53.590Z,1.42
2023-02-11T22:45:22.110Z,1.43
2023-02-11T22:48:04.549Z,1.44
2023-02-11T22:50:36.506Z,1.44
2023-02-11T22:53:06.986Z,1.43
2023-02-11T22:55:39.263Z,1.44
2023-02-11T22:58:12.634Z,1.44
2023-02-11T23:00:49.041Z,1.45
2023-02-11T23:03:20.284Z,1.47
2023-02-11T23:05:51.223Z,1.47
2023-02-11T23:08:23.086Z,1.46
2023-02-11T23:10:54.036Z,1.46
2023-02-11T23:13:27.043Z,1.45
2023-02-11T23:15:57.063Z,1.43
2023-02-11T23:18:25.479Z,1.41
2023-02-11T23:20:54.605Z,1.36
2023-02-11T23:23:24.328Z,1.30
2023-02-11T23:25:52.900Z,1.25
2023-02-11T23:36:02.452Z,1.07
2023-02-11T23:38:34.220Z,0.98
2023-02-11T23:41:02.550Z,0.92
2023-02-11T23:43:31.005Z,0.87
2023-02-11T23:46:00.489Z,0.84
2023-02-11T23:48:29.515Z,0.81
2023-02-11T23:50:57.836Z,0.78
2023-02-11T23:53:26.368Z,0.76
2023-02-11T23:55:55.720Z,0.75
2023-02-11T23:58:24.388Z,0.75
